Time;durP1;ratioP1;P1;durP2;ratioP2;P2;SDS_P1;SDS_P2;PMS_P1;PMS_P2;Temp;Humidity;BMP_temperature;BMP_pressure;BME280_temperature;BME280_humidity;BME280_pressure;Samples;Min_cycle;Max_cycle;Signal;HPM_P1;HPM_P2
2022/03/04 00:01:05;;;;;;;7.28;4.47;;;;;;;19.12;51.12;99179.66;5077895;28;20028;-91
2022/03/04 00:03:36;;;;;;;8.07;4.53;;;;;;;19.10;51.15;99174.44;5096092;28;20008;-90
2022/03/04 00:06:01;;;;;;;7.40;4.00;;;;;;;19.13;50.78;99186.66;5078105;28;20012;-91
2022/03/04 00:08:27;;;;;;;8.50;4.25;;;;;;;19.12;50.98;99184.94;5078700;28;20013;-90
2022/03/04 00:11:04;;;;;;;6.75;3.95;;;;;;;19.10;50.96;99176.22;5096245;28;20030;-93
2022/03/04 00:13:35;;;;;;;8.02;3.70;;;;;;;19.09;50.88;99179.81;5078768;28;20056;-92
2022/03/04 00:16:05;;;;;;;6.50;4.18;;;;;;;19.09;50.63;99180.69;5077862;28;20078;-91
2022/03/04 00:18:31;;;;;;;7.03;4.05;;;;;;;19.10;50.94;99190.31;5062176;28;20040;-91
2022/03/04 00:21:02;;;;;;;7.55;3.95;;;;;;;19.08;50.92;99178.13;5078950;28;20025;-92
2022/03/04 00:23:30;;;;;;;6.25;3.80;;;;;;;19.08;50.87;99172.84;5079281;28;20013;-91
2022/03/04 00:26:03;;;;;;;6.95;3.78;;;;;;;19.08;50.83;99181.59;5080226;28;20100;-90
2022/03/04 00:28:29;;;;;;;6.35;3.33;;;;;;;19.05;50.89;99172.03;5080063;28;20036;-92
2022/03/04 00:31:24;;;;;;;6.55;3.65;;;;;;;19.05;50.55;99174.69;5097313;28;20053;-92
2022/03/04 00:34:11;;;;;;;6.43;3.22;;;;;;;19.07;50.97;99181.72;5097762;28;20067;-91
2022/03/04 00:36:45;;;;;;;6.57;3.88;;;;;;;19.04;50.70;99186.22;5076879;28;20037;-90
2022/03/04 00:39:14;;;;;;;5.93;3.65;;;;;;;19.07;50.71;99187.00;5072849;28;20044;-91
2022/03/04 00:48:46;;;;;;;5.80;3.33;;;;;;;19.04;50.45;99188.84;5056114;28;20033;-91
2022/03/04 00:51:14;;;;;;;5.45;3.47;;;;;;;19.03;50.43;99186.31;5054715;28;20041;-92
2022/03/04 00:53:41;;;;;;;7.00;3.53;;;;;;;19.02;50.66;99188.06;5037411;28;20041;-90
2022/03/04 00:56:09;;;;;;;6.13;3.33;;;;;;;19.03;50.48;99188.97;5035739;28;20490;-92
2022/03/04 00:58:40;;;;;;;5.63;3.33;;;;;;;19.03;50.79;99191.63;5039357;28;20032;-92
2022/03/04 01:01:06;;;;;;;5.50;3.35;;;;;;;19.00;50.59;99187.31;5039635;28;20051;-93
2022/03/04 01:03:41;;;;;;;5.80;3.33;;;;;;;18.99;50.73;99182.94;5055062;28;20034;-93
2022/03/04 01:06:12;;;;;;;5.70;3.13;;;;;;;19.00;50.63;99184.69;5040163;28;20041;-92
2022/03/04 01:08:38;;;;;;;5.63;3.13;;;;;;;18.99;50.75;99185.59;5037088;28;20467;-92
2022/03/04 01:11:07;;;;;;;6.38;3.40;;;;;;;18.97;50.53;99190.13;5004255;28;20064;-92
2022/03/04 01:13:38;;;;;;;4.93;2.85;;;;;;;18.98;50.59;99189.19;5020767;28;20029;-93
2022/03/04 01:16:09;;;;;;;5.63;3.20;;;;;;;18.98;50.69;99196.28;5023402;28;20049;-92
2022/03/04 01:18:39;;;;;;;5.30;3.28;;;;;;;18.97;50.35;99199.84;5016689;28;20029;-92
2022/03/04 01:21:43;;;;;;;5.07;3.10;;;;;;;18.97;50.74;99192.75;5075140;28;20021;-93
2022/03/04 01:24:15;;;;;;;5.28;2.97;;;;;;;18.96;50.54;99201.66;5063193;28;20071;-92
2022/03/04 01:27:07;;;;;;;4.78;3.10;;;;;;;18.96;50.70;99201.66;5046277;28;20068;-93
2022/03/04 01:29:33;;;;;;;5.88;2.83;;;;;;;18.98;50.37;99205.03;5063263;28;20067;-92
2022/03/04 01:32:04;;;;;;;5.22;2.65;;;;;;;18.97;50.49;99207.78;5082574;28;20017;-92
2022/03/04 01:34:30;;;;;;;5.40;3.10;;;;;;;18.96;50.42;99200.78;5065769;28;20035;-92
2022/03/04 01:37:12;;;;;;;4.75;2.90;;;;;;;18.96;50.50;99196.34;5098103;28;20436;-92
2022/03/04 01:39:51;;;;;;;4.80;2.97;;;;;;;18.95;50.51;99193.78;5083815;28;20048;-92
2022/03/04 01:42:27;;;;;;;3.97;2.40;;;;;;;18.95;50.34;99199.09;5083740;28;20031;-93
2022/03/04 01:45:11;;;;;;;4.38;2.50;;;;;;;18.96;50.80;99196.34;5085140;28;20016;-93
2022/03/04 01:48:22;;;;;;;4.57;2.45;;;;;;;18.95;50.78;99199.94;5119813;28;20102;-92
2022/03/04 01:54:12;;;;;;;4.35;2.20;;;;;;;18.92;50.30;99195.69;5121605;28;20100;-92
2022/03/04 02:00:08;;;;;;;4.78;2.55;;;;;;;18.92;50.43;99194.81;5120891;28;20112;-93
2022/03/04 02:03:00;;;;;;;4.07;2.20;;;;;;;18.92;50.42;99200.09;5117956;28;20043;-93
2022/03/04 02:05:30;;;;;;;4.13;2.20;;;;;;;18.90;50.44;99191.41;5102313;28;20162;-92
2022/03/04 02:08:19;;;;;;;4.00;2.30;;;;;;;18.90;50.47;99186.97;5085977;28;20032;-92
2022/03/04 02:10:55;;;;;;;3.70;2.28;;;;;;;18.91;50.49;99183.41;5120327;28;20029;-93
2022/03/04 02:20:33;;;;;;;3.40;1.92;;;;;;;18.90;50.24;99183.50;5079696;28;20084;-93
2022/03/04 02:23:00;;;;;;;3.75;2.40;;;;;;;18.89;50.51;99189.72;5061448;28;20092;-93
2022/03/04 02:25:30;;;;;;;3.50;2.05;;;;;;;18.87;50.50;99186.28;5078120;28;20029;-94
2022/03/04 02:28:32;;;;;;;4.45;2.20;;;;;;;18.89;50.51;99189.72;5077436;28;20035;-93
2022/03/04 02:31:03;;;;;;;3.33;1.92;;;;;;;18.86;50.58;99196.03;5071166;28;20044;-93
2022/03/04 02:37:15;;;;;;;3.10;1.73;;;;;;;18.87;50.34;99192.44;5059429;28;20048;-91
2022/03/04 02:39:41;;;;;;;3.17;2.00;;;;;;;18.87;50.39;99181.88;5041543;28;20041;-91
2022/03/04 02:42:06;;;;;;;3.35;1.80;;;;;;;18.85;50.46;99183.75;5038929;28;20033;-92
2022/03/04 02:44:32;;;;;;;3.83;1.98;;;;;;;18.86;50.53;99177.53;5038963;28;20037;-91
2022/03/04 02:46:57;;;;;;;4.32;2.17;;;;;;;18.87;50.28;99181.00;5034404;28;20025;-92
2022/03/04 02:49:23;;;;;;;3.95;2.00;;;;;;;18.86;50.32;99177.53;5050736;28;20037;-91
2022/03/04 02:51:48;;;;;;;2.47;1.48;;;;;;;18.87;50.26;99184.50;5033963;28;20062;-91
2022/03/04 02:54:14;;;;;;;3.97;1.92;;;;;;;18.88;50.12;99188.00;5033465;28;20029;-92
2022/03/04 02:56:40;;;;;;;3.42;1.73;;;;;;;18.87;50.18;99181.88;5039359;28;20084;-91
2022/03/04 02:59:06;;;;;;;4.50;2.10;;;;;;;18.87;50.48;99183.66;5074915;28;20048;-91
2022/03/04 03:01:32;;;;;;;3.22;1.80;;;;;;;18.84;50.38;99186.47;5078297;28;20005;-91
2022/03/04 03:03:58;;;;;;;3.10;1.70;;;;;;;18.86;50.45;99184.59;5079313;28;20071;-91
2022/03/04 03:06:57;;;;;;;2.78;1.48;;;;;;;18.85;50.43;99185.53;5096172;28;20052;-92
2022/03/04 03:09:24;;;;;;;3.30;1.67;;;;;;;18.85;50.19;99188.19;5079998;28;20040;-92
2022/03/04 03:11:57;;;;;;;3.13;1.67;;;;;;;18.85;50.21;99185.53;5049127;28;20020;-92
2022/03/04 03:14:31;;;;;;;3.60;1.75;;;;;;;18.83;50.43;99192.72;5097415;28;20024;-90
2022/03/04 03:16:57;;;;;;;2.60;1.58;;;;;;;18.83;50.38;99187.44;5077010;28;20042;-92
2022/03/04 03:19:24;;;;;;;3.45;1.67;;;;;;;18.83;50.30;99190.06;5080063;28;20016;-91
2022/03/04 03:21:49;;;;;;;2.80;1.63;;;;;;;18.82;50.24;99191.84;5062286;28;20033;-92
2022/03/04 03:24:25;;;;;;;2.88;1.52;;;;;;;18.82;50.57;99190.97;5079703;28;20025;-92
2022/03/04 03:26:59;;;;;;;2.90;1.65;;;;;;;18.84;50.22;99191.75;5067128;28;20009;-91
2022/03/04 03:29:41;;;;;;;2.80;1.40;;;;;;;18.82;50.26;99193.63;5064850;28;20012;-91
2022/03/04 03:32:22;;;;;;;2.88;1.30;;;;;;;18.81;50.30;99191.94;5101519;28;20036;-93
2022/03/04 03:35:00;;;;;;;3.08;1.50;;;;;;;18.80;50.26;99185.81;5083924;28;20048;-93
2022/03/04 03:37:56;;;;;;;3.25;1.45;;;;;;;18.81;50.56;99198.06;5119028;28;20020;-92
2022/03/04 03:40:41;;;;;;;2.50;1.25;;;;;;;18.81;50.52;99194.56;5119486;28;20080;-92
2022/03/04 03:43:19;;;;;;;2.85;1.27;;;;;;;18.80;50.37;99201.66;5069133;28;20012;-93
2022/03/04 03:46:06;;;;;;;2.20;1.15;;;;;;;18.79;50.48;99200.78;5102289;28;20138;-93
2022/03/04 03:48:39;;;;;;;2.85;1.60;;;;;;;18.79;50.50;99214.00;5099510;28;20040;-92
2022/03/04 03:51:08;;;;;;;2.05;1.05;;;;;;;18.79;50.34;99211.38;5101259;28;20040;-93
2022/03/04 03:53:47;;;;;;;2.80;1.27;;;;;;;18.81;50.06;99219.22;5116731;28;20095;-93
2022/03/04 03:56:41;;;;;;;2.83;1.30;;;;;;;18.80;50.42;99209.59;5070116;28;20016;-92
2022/03/04 03:59:08;;;;;;;2.42;1.27;;;;;;;18.80;50.15;99217.53;5118427;28;20443;-92
2022/03/04 04:01:40;;;;;;;2.40;1.35;;;;;;;18.79;50.25;99224.59;5083404;28;20024;-92
2022/03/04 04:04:12;;;;;;;2.95;1.40;;;;;;;18.79;50.10;99221.94;5084928;28;20032;-92
2022/03/04 04:07:14;;;;;;;1.92;1.05;;;;;;;18.78;50.53;99222.88;5116742;28;20020;-92
2022/03/04 04:09:45;;;;;;;1.70;1.13;;;;;;;18.77;50.58;99221.19;5100532;28;20027;-93
2022/03/04 04:15:34;;;;;;;3.40;1.23;;;;;;;18.76;50.47;99226.56;5077987;28;20037;-93
2022/03/04 04:18:26;;;;;;;2.38;1.15;;;;;;;18.75;50.23;99232.78;5077116;28;20033;-92
2022/03/04 04:20:56;;;;;;;2.55;1.20;;;;;;;18.76;50.27;99226.56;5076760;28;20073;-92
2022/03/04 04:23:27;;;;;;;2.60;1.25;;;;;;;18.76;50.02;99232.69;5059663;28;20029;-92
2022/03/04 04:25:54;;;;;;;1.73;1.00;;;;;;;18.74;50.09;99234.56;5028274;28;20025;-91
2022/03/04 04:31:47;;;;;;;1.95;1.00;;;;;;;18.75;50.29;99241.53;5076296;28;20429;-92
2022/03/04 04:34:14;;;;;;;2.58;1.00;;;;;;;18.73;50.25;99243.44;5058063;28;20049;-91
2022/03/04 04:37:04;;;;;;;2.50;1.10;;;;;;;18.74;50.19;99239.00;5061123;28;20009;-92
2022/03/04 04:42:55;;;;;;;1.55;0.90;;;;;;;18.74;50.09;99247.78;5091527;28;20039;-91
2022/03/04 04:45:21;;;;;;;2.45;1.27;;;;;;;18.71;50.11;99240.03;5082599;28;20040;-92
2022/03/04 04:47:47;;;;;;;2.58;0.98;;;;;;;18.73;50.30;99253.13;5115042;28;20027;-92
2022/03/04 04:50:12;;;;;;;1.50;1.00;;;;;;;18.73;50.24;99256.66;5083170;28;20038;-92
2022/03/04 04:52:39;;;;;;;2.55;1.30;;;;;;;18.73;50.42;99254.00;5100811;28;20050;-92
2022/03/04 04:55:06;;;;;;;2.22;1.20;;;;;;;18.72;50.55;99257.59;5083955;28;20019;-91
2022/03/04 04:57:31;;;;;;;2.97;1.50;;;;;;;18.72;50.23;99254.94;5082619;28;20036;-91
2022/03/04 04:59:57;;;;;;;1.52;0.90;;;;;;;18.70;50.10;99266.53;5098128;28;20055;-91
2022/03/04 05:02:22;;;;;;;3.95;2.10;;;;;;;18.72;50.22;99267.28;5114254;28;20039;-91
2022/03/04 05:04:48;;;;;;;2.05;1.02;;;;;;;18.71;50.07;99266.47;5096833;28;20043;-92
2022/03/04 05:07:13;;;;;;;2.35;1.27;;;;;;;18.73;50.02;99272.50;5097927;28;20028;-90
2022/03/04 05:09:39;;;;;;;1.92;1.20;;;;;;;18.71;50.32;99271.75;5096941;28;20020;-91
2022/03/04 05:12:10;;;;;;;2.47;1.25;;;;;;;18.71;50.04;99282.31;5104043;28;20015;-91
2022/03/04 05:14:40;;;;;;;2.33;1.10;;;;;;;18.73;50.25;99282.22;5120887;28;20088;-92
2022/03/04 05:17:20;;;;;;;1.70;1.10;;;;;;;18.73;50.07;99280.44;5089015;28;20043;-92
2022/03/04 05:19:51;;;;;;;2.05;1.17;;;;;;;18.72;50.15;99284.03;5106445;28;20014;-93
2022/03/04 05:22:19;;;;;;;1.88;1.13;;;;;;;18.71;50.16;99287.59;5104549;28;20035;-93
2022/03/04 05:25:02;;;;;;;2.05;1.30;;;;;;;18.70;50.08;99280.59;5121399;28;20017;-92
2022/03/04 05:27:39;;;;;;;1.80;1.20;;;;;;;18.71;49.95;99287.59;5109917;28;20020;-94
2022/03/04 05:30:13;;;;;;;3.22;1.33;;;;;;;18.68;50.12;99290.41;5105071;28;20016;-93
2022/03/04 05:32:39;;;;;;;1.92;1.10;;;;;;;18.70;50.27;99293.81;5088105;28;20016;-94
2022/03/04 05:35:07;;;;;;;1.88;1.10;;;;;;;18.69;50.09;99299.19;5104640;28;20083;-92
2022/03/04 05:37:35;;;;;;;1.90;1.38;;;;;;;18.68;49.98;99293.03;5121669;28;20009;-91
2022/03/04 05:40:26;;;;;;;1.85;1.20;;;;;;;18.68;50.28;99298.31;5104543;28;20027;-91
2022/03/04 05:42:53;;;;;;;2.17;1.25;;;;;;;18.68;50.07;99302.78;5104576;28;20047;-93
2022/03/04 05:45:34;;;;;;;2.10;1.30;;;;;;;18.68;49.96;99302.78;5119802;28;20020;-91
2022/03/04 05:48:02;;;;;;;1.70;1.02;;;;;;;18.65;50.05;99304.63;5087320;28;20032;-92
2022/03/04 05:50:49;;;;;;;2.33;1.13;;;;;;;18.68;49.91;99302.78;5107008;28;20033;-93
2022/03/04 05:53:34;;;;;;;2.58;1.33;;;;;;;18.67;49.93;99303.69;5120152;28;20032;-92
2022/03/04 05:56:01;;;;;;;2.33;1.20;;;;;;;18.67;50.12;99306.34;5099996;28;20052;-92
2022/03/04 05:58:27;;;;;;;3.00;1.45;;;;;;;18.66;50.28;99300.22;5100194;28;20016;-93
2022/03/04 06:00:53;;;;;;;2.22;1.50;;;;;;;18.65;50.20;99311.72;5083947;28;20024;-93
2022/03/04 06:03:19;;;;;;;2.75;1.50;;;;;;;18.67;50.33;99311.63;5098786;28;20024;-92
2022/03/04 06:05:45;;;;;;;2.35;1.17;;;;;;;18.66;50.21;99316.06;5098353;28;20047;-93
2022/03/04 06:08:11;;;;;;;2.25;1.30;;;;;;;18.65;50.17;99319.66;5081262;28;20096;-92
2022/03/04 06:10:37;;;;;;;2.45;1.38;;;;;;;18.65;50.26;99319.66;5100816;28;20031;-93
2022/03/04 06:13:12;;;;;;;3.25;1.50;;;;;;;18.65;50.09;99324.94;5100153;28;20096;-93
2022/03/04 06:22:11;;;;;;;2.78;1.42;;;;;;;18.63;50.04;99324.16;5054963;28;20095;-91
2022/03/04 06:24:37;;;;;;;2.42;1.42;;;;;;;18.61;50.26;99329.53;5093185;28;20032;-93
2022/03/04 06:27:03;;;;;;;2.50;1.25;;;;;;;18.62;50.05;99333.88;5100394;28;20357;-92
2022/03/04 06:29:29;;;;;;;2.17;1.20;;;;;;;18.63;50.07;99337.38;5083277;28;20051;-93
2022/03/04 06:31:57;;;;;;;1.88;1.00;;;;;;;18.60;50.30;99337.53;5097247;28;20040;-92
2022/03/04 06:34:23;;;;;;;2.92;1.50;;;;;;;18.60;50.15;99342.81;5082342;28;20025;-94
2022/03/04 06:36:58;;;;;;;2.17;1.10;;;;;;;18.61;49.93;99336.59;5083319;28;20076;-94
2022/03/04 06:39:54;;;;;;;3.03;1.70;;;;;;;18.63;50.01;99342.66;5083373;28;20013;-93
2022/03/04 06:42:22;;;;;;;2.25;1.20;;;;;;;18.61;50.28;99344.53;5066595;28;20066;-92
2022/03/04 06:45:02;;;;;;;1.42;1.20;;;;;;;18.61;50.04;99352.47;5066403;28;20016;-91
2022/03/04 06:47:44;;;;;;;2.05;1.33;;;;;;;18.58;50.33;99361.41;5099501;28;20017;-91
2022/03/04 06:50:24;;;;;;;2.58;1.48;;;;;;;18.59;49.97;99363.09;5098707;28;20058;-91
2022/03/04 06:53:03;;;;;;;2.42;1.10;;;;;;;18.60;49.99;99361.31;5098446;28;20036;-91
2022/03/04 06:55:34;;;;;;;2.33;1.30;;;;;;;18.60;50.12;99366.63;5099240;28;20012;-92
2022/03/04 06:58:11;;;;;;;2.30;1.30;;;;;;;18.59;49.98;99373.66;5082667;28;20021;-91
2022/03/04 07:00:49;;;;;;;1.88;1.13;;;;;;;18.57;50.17;99364.97;5064084;28;20008;-92
2022/03/04 07:03:53;;;;;;;2.03;1.33;;;;;;;18.59;50.17;99378.13;5083827;28;20025;-93
2022/03/04 07:06:23;;;;;;;2.47;1.27;;;;;;;18.59;50.13;99367.56;5099437;28;20032;-93
2022/03/04 07:08:56;;;;;;;1.95;1.10;;;;;;;18.59;50.05;99370.19;5081930;28;20088;-93
2022/03/04 07:11:21;;;;;;;2.05;1.17;;;;;;;18.58;50.07;99374.63;5081915;28;20025;-92
2022/03/04 07:13:49;;;;;;;2.13;1.20;;;;;;;18.58;50.24;99371.09;5095705;28;20025;-93
2022/03/04 07:16:19;;;;;;;1.90;1.23;;;;;;;18.58;50.11;99384.31;5076860;28;20031;-93
2022/03/04 07:18:45;;;;;;;1.75;1.25;;;;;;;18.58;49.98;99381.66;5081085;28;20035;-90
2022/03/04 07:21:19;;;;;;;2.97;1.40;;;;;;;18.58;50.05;99381.66;5082745;28;20020;-93
2022/03/04 07:23:45;;;;;;;1.50;0.98;;;;;;;18.58;50.11;99385.19;5082096;28;20016;-90
2022/03/04 07:26:21;;;;;;;1.70;1.08;;;;;;;18.57;50.11;99393.19;5082324;28;20016;-93
2022/03/04 07:29:09;;;;;;;2.03;1.05;;;;;;;18.56;50.13;99397.63;5082509;28;20079;-93
2022/03/04 07:31:41;;;;;;;2.47;1.30;;;;;;;18.58;49.98;99389.59;5068924;28;20020;-91
2022/03/04 07:34:14;;;;;;;;;;;;;;;18.56;49.99;99394.13;5099547;28;20045;-91
2022/03/04 07:36:55;;;;;;;1.67;1.15;;;;;;;18.58;49.99;99402.81;5082231;28;19915;-92
2022/03/04 07:39:21;;;;;;;2.08;1.30;;;;;;;18.56;50.07;99402.06;5066412;28;20083;-92
2022/03/04 07:42:09;;;;;;;2.30;1.02;;;;;;;18.56;49.83;99404.69;5099605;28;20016;-93
2022/03/04 07:44:36;;;;;;;2.13;1.30;;;;;;;18.55;50.05;99405.63;5079646;28;20111;-90
2022/03/04 07:47:24;;;;;;;1.55;0.95;;;;;;;18.56;49.91;99409.97;5081066;28;20016;-90
2022/03/04 07:56:52;;;;;;;1.67;1.00;;;;;;;18.54;50.15;99419.78;5098593;28;20035;-93
2022/03/04 07:59:38;;;;;;;1.88;1.10;;;;;;;18.51;50.20;99424.28;5097991;28;20029;-92
2022/03/04 08:02:07;;;;;;;2.15;1.15;;;;;;;18.52;50.37;99436.56;5075525;28;20048;-93
2022/03/04 08:04:33;;;;;;;2.08;1.05;;;;;;;18.54;49.93;99438.28;5080614;28;20025;-93
2022/03/04 08:06:59;;;;;;;2.30;1.20;;;;;;;18.54;50.40;99438.28;5080599;28;20043;-94
2022/03/04 08:09:41;;;;;;;2.28;1.00;;;;;;;18.52;50.07;99438.34;5081053;28;20033;-94
2022/03/04 08:12:14;;;;;;;1.73;1.02;;;;;;;18.51;50.32;99445.41;5075059;28;20012;-94
2022/03/04 08:14:41;;;;;;;1.92;1.10;;;;;;;18.52;50.02;99447.16;5044857;28;20040;-92
2022/03/04 08:17:13;;;;;;;3.22;1.45;;;;;;;18.53;50.02;99450.63;5067811;28;20043;-92
2022/03/04 08:19:46;;;;;;;2.13;1.25;;;;;;;18.52;49.90;99452.44;5062508;28;20059;-92
2022/03/04 08:25:19;;;;;;;1.50;1.00;;;;;;;18.51;50.36;99461.25;5099649;28;20070;-92
2022/03/04 08:27:47;;;;;;;1.98;1.00;;;;;;;18.51;49.97;99466.56;5080892;28;20112;-90
2022/03/04 08:30:19;;;;;;;1.95;1.10;;;;;;;18.49;50.32;99463.13;5087356;28;20050;-92
2022/03/04 08:32:49;;;;;;;1.95;1.20;;;;;;;18.49;50.23;99468.44;5083692;28;20055;-93
2022/03/04 08:35:16;;;;;;;2.53;1.13;;;;;;;18.48;49.98;99466.72;5104745;28;20036;-93
2022/03/04 08:38:09;;;;;;;2.00;1.10;;;;;;;18.50;50.09;99459.56;5086468;28;20082;-92
2022/03/04 08:40:50;;;;;;;2.15;1.17;;;;;;;18.50;50.24;99464.00;5103158;28;20074;-94
2022/03/04 08:43:31;;;;;;;2.22;1.30;;;;;;;18.50;50.30;99471.94;5114912;28;20063;-93
2022/03/04 08:46:15;;;;;;;1.85;0.93;;;;;;;18.49;50.02;99473.72;5122588;28;20012;-94
2022/03/04 08:48:41;;;;;;;2.38;1.13;;;;;;;18.48;50.24;99472.00;5101995;28;20036;-92
2022/03/04 08:51:08;;;;;;;1.48;1.00;;;;;;;18.47;50.31;99480.88;5090801;28;20032;-92
2022/03/04 08:53:43;;;;;;;2.15;1.05;;;;;;;18.48;50.16;99482.56;5094164;28;20038;-93
2022/03/04 08:56:10;;;;;;;1.75;1.00;;;;;;;18.48;50.09;99481.72;5096493;28;20035;-93
2022/03/04 08:58:36;;;;;;;1.67;0.98;;;;;;;18.48;50.50;99487.84;5100961;28;20039;-92
2022/03/04 09:01:02;;;;;;;2.53;1.27;;;;;;;18.49;50.19;99484.28;5078402;28;20501;-92
2022/03/04 09:03:28;;;;;;;1.60;1.00;;;;;;;18.50;50.36;99490.44;5094817;28;20169;-92
2022/03/04 09:05:54;;;;;;;1.25;0.90;;;;;;;18.49;50.40;99488.69;5095759;28;20065;-92
2022/03/04 09:08:19;;;;;;;2.45;0.90;;;;;;;18.50;50.73;99490.44;5095266;28;20066;-91
2022/03/04 09:10:45;;;;;;;2.10;1.10;;;;;;;18.50;50.47;99499.19;5094704;28;20020;-92
2022/03/04 09:13:14;;;;;;;1.50;0.90;;;;;;;18.49;50.67;99494.84;5098229;28;20127;-92
2022/03/04 09:15:42;;;;;;;2.20;1.20;;;;;;;18.49;50.89;99499.25;5084995;28;20087;-90
2022/03/04 09:18:08;;;;;;;2.35;0.95;;;;;;;18.49;50.49;99502.78;5100539;28;20028;-92
2022/03/04 09:20:36;;;;;;;2.45;1.13;;;;;;;18.49;50.79;99505.41;5103670;28;20068;-94
2022/03/04 09:23:06;;;;;;;1.60;1.00;;;;;;;18.50;50.47;99507.13;5100427;28;20043;-93
2022/03/04 09:25:53;;;;;;;2.03;1.00;;;;;;;18.50;50.63;99508.94;5101875;28;20021;-92
2022/03/04 09:28:19;;;;;;;;;;;;;;;18.50;50.54;99512.41;5083179;28;20044;-92
2022/03/04 09:30:44;;;;;;;2.20;1.10;;;;;;;18.50;50.77;99512.41;5092657;28;19912;-93
2022/03/04 09:33:11;;;;;;;2.22;1.05;;;;;;;18.51;50.53;99513.28;5099350;28;20040;-93
2022/03/04 09:35:38;;;;;;;2.00;1.00;;;;;;;18.49;50.58;99515.13;5102653;28;20039;-94
2022/03/04 09:38:09;;;;;;;1.38;0.95;;;;;;;18.49;50.44;99516.00;5120156;28;20012;-91
2022/03/04 09:40:59;;;;;;;1.23;0.80;;;;;;;18.49;50.59;99518.63;5099297;28;20104;-91
2022/03/04 09:43:26;;;;;;;1.58;0.90;;;;;;;18.49;50.15;99526.56;5100155;28;20039;-93
2022/03/04 09:45:58;;;;;;;2.00;1.00;;;;;;;18.50;50.30;99522.13;5101891;28;20020;-93
2022/03/04 09:48:25;;;;;;;2.85;0.80;;;;;;;18.47;50.30;99523.16;5110788;28;20016;-90
2022/03/04 09:50:54;;;;;;;1.58;0.80;;;;;;;18.47;50.33;99523.16;5092142;28;20038;-92
2022/03/04 09:53:19;;;;;;;2.05;0.90;;;;;;;18.48;50.41;99524.84;5094805;28;20035;-92
2022/03/04 09:55:48;;;;;;;1.45;0.90;;;;;;;18.48;50.45;99522.22;5091712;28;20028;-91
2022/03/04 09:58:17;;;;;;;1.83;0.88;;;;;;;18.49;50.25;99521.28;5090226;28;20028;-92
2022/03/04 10:01:33;;;;;;;1.30;0.80;;;;;;;18.48;50.26;99518.69;5103857;28;20043;-92
2022/03/04 10:04:00;;;;;;;1.77;1.10;;;;;;;18.48;50.33;99529.25;5111578;28;20043;-92
2022/03/04 10:06:26;;;;;;;2.20;1.02;;;;;;;18.47;50.28;99533.72;5095522;28;20042;-91
2022/03/04 10:08:53;;;;;;;1.92;0.80;;;;;;;18.47;50.39;99532.84;5099215;28;20369;-93
2022/03/04 10:11:39;;;;;;;2.13;0.80;;;;;;;18.48;50.36;99535.41;5102448;28;20032;-93
2022/03/04 10:14:17;;;;;;;1.45;0.82;;;;;;;18.47;50.23;99533.72;5083818;28;20020;-93
2022/03/04 10:16:45;;;;;;;1.08;0.70;;;;;;;18.48;50.15;99535.41;5081187;28;20029;-93
2022/03/04 10:19:20;;;;;;;2.47;1.00;;;;;;;18.48;50.12;99535.41;5107640;28;20024;-93
2022/03/04 10:21:47;;;;;;;2.13;0.98;;;;;;;18.48;50.40;99534.56;5088701;28;20385;-92
2022/03/04 10:24:14;;;;;;;1.58;0.73;;;;;;;18.48;50.15;99532.78;5101035;28;20035;-92
2022/03/04 10:32:24;;;;;;;2.05;1.13;;;;;;;18.48;50.03;99537.19;6229841;22;20124;31
2022/03/04 10:35:01;;;;;;;1.73;0.75;;;;;;;18.48;50.25;99546.00;5029731;28;20499;-91
2022/03/04 10:37:48;;;;;;;1.70;0.80;;;;;;;18.50;50.08;99548.56;5033227;28;20018;-90
2022/03/04 10:40:18;;;;;;;1.67;0.80;;;;;;;18.51;50.03;99551.09;5027641;28;20022;-90
2022/03/04 10:43:13;;;;;;;1.30;0.68;;;;;;;18.52;50.18;99552.84;5030141;28;20336;-92
2022/03/04 10:45:46;;;;;;;1.38;0.70;;;;;;;18.52;50.05;99551.97;5052344;28;20060;-92
2022/03/04 10:48:24;;;;;;;1.30;0.73;;;;;;;18.51;49.98;99548.47;5027551;28;20026;-91
2022/03/04 10:50:54;;;;;;;2.60;0.70;;;;;;;18.50;50.24;99541.47;5050147;28;20037;-94
2022/03/04 10:53:25;;;;;;;1.65;0.63;;;;;;;18.50;49.97;99541.47;5038075;28;20038;-92
2022/03/04 10:55:58;;;;;;;2.13;0.77;;;;;;;18.50;50.03;99544.13;5034482;28;20046;-92
2022/03/04 10:58:30;;;;;;;1.30;0.63;;;;;;;18.52;50.14;99542.28;5026433;28;20033;-90
2022/03/04 11:01:00;;;;;;;1.25;0.70;;;;;;;18.50;49.83;99544.13;5029586;28;20026;-91
2022/03/04 11:03:31;;;;;;;1.23;0.50;;;;;;;18.50;50.31;99543.28;5027175;28;20014;-93
2022/03/04 11:06:01;;;;;;;2.63;0.52;;;;;;;18.52;50.10;99546.69;5006110;28;20042;-92
2022/03/04 11:08:34;;;;;;;1.15;0.60;;;;;;;18.50;50.26;99552.03;5026268;28;20428;-92
2022/03/04 11:11:00;;;;;;;2.40;0.82;;;;;;;18.50;50.19;99552.03;5045589;28;20053;-92
2022/03/04 11:13:26;;;;;;;1.55;0.90;;;;;;;18.51;49.93;99553.75;5036952;28;20044;-92
2022/03/04 11:15:53;;;;;;;1.70;0.50;;;;;;;18.51;50.14;99556.38;5031485;28;20093;-90
2022/03/04 11:18:25;;;;;;;1.65;0.90;;;;;;;18.51;49.86;99551.09;5038125;28;20022;-94
2022/03/04 11:23:54;;;;;;;1.25;0.50;;;;;;;18.52;49.83;99558.13;6041731;22;20140;-92
2022/03/04 11:26:31;;;;;;;1.65;0.70;;;;;;;18.50;50.01;99557.31;5066942;28;20035;-93
2022/03/04 11:29:07;;;;;;;1.03;0.60;;;;;;;18.49;50.17;99552.13;5099468;28;20023;-94
2022/03/04 11:31:44;;;;;;;1.38;0.63;;;;;;;18.50;50.10;99553.84;5083110;28;20046;-93
2022/03/04 11:34:18;;;;;;;1.48;0.50;;;;;;;18.50;50.17;99561.78;5082339;28;20024;-94
2022/03/04 11:37:14;;;;;;;2.17;0.50;;;;;;;18.50;49.96;99559.97;5082697;28;20016;-93
2022/03/04 11:42:53;;;;;;;3.00;0.60;;;;;;;18.50;50.26;99565.25;5317254;22;20073;-94
2022/03/04 11:45:41;;;;;;;1.80;0.65;;;;;;;18.50;50.17;99559.97;4994581;28;20026;-95
2022/03/04 11:48:14;;;;;;;1.25;0.50;;;;;;;18.49;49.97;99558.25;5001828;28;20033;-93
2022/03/04 11:51:23;;;;;;;1.25;0.57;;;;;;;18.51;50.02;99560.84;4983618;28;20066;-94
2022/03/04 11:54:23;;;;;;;1.48;0.50;;;;;;;18.50;50.15;99559.97;4979382;28;20042;-95
2022/03/04 11:56:54;;;;;;;1.38;0.60;;;;;;;18.50;49.83;99553.84;5000682;28;20022;-94
2022/03/04 11:59:29;;;;;;;1.13;0.70;;;;;;;18.48;50.18;99550.41;5000221;28;20026;-95
2022/03/04 12:01:58;;;;;;;1.00;0.40;;;;;;;18.48;50.14;99537.19;5000330;28;20025;-94
2022/03/04 12:04:24;;;;;;;0.98;0.60;;;;;;;18.49;49.94;99552.97;5001447;28;20110;-94
2022/03/04 12:07:07;;;;;;;0.47;0.43;;;;;;;18.49;50.19;99554.75;5001717;28;20010;-94
2022/03/04 12:09:32;;;;;;;1.08;0.47;;;;;;;18.48;50.29;99546.00;5001964;28;20053;-94
2022/03/04 12:12:33;;;;;;;1.50;0.70;;;;;;;18.49;49.99;99552.97;5018520;28;20018;-93
2022/03/04 12:15:39;;;;;;;1.75;0.60;;;;;;;18.49;50.30;99552.97;4994820;28;20119;-94
2022/03/04 12:18:35;;;;;;;1.40;0.63;;;;;;;18.49;49.91;99542.41;4938428;29;20028;-94
2022/03/04 12:21:18;;;;;;;1.98;0.60;;;;;;;18.49;50.05;99552.97;4990925;28;20062;-93
2022/03/04 12:24:02;;;;;;;1.48;0.40;;;;;;;18.48;49.99;99551.28;4983918;28;20015;-93
2022/03/04 12:26:52;;;;;;;1.90;0.75;;;;;;;18.50;50.09;99549.41;4981544;28;20068;-94
2022/03/04 12:29:31;;;;;;;1.52;0.70;;;;;;;18.51;50.03;99550.28;5001826;28;20014;-93
2022/03/04 12:46:41;;;;;;;1.95;0.60;;;;;;;18.48;49.88;99543.34;5963470;22;20102;-93
2022/03/04 12:49:36;;;;;;;1.30;0.60;;;;;;;18.48;50.12;99540.69;4998012;28;20047;-92
2022/03/04 12:52:20;;;;;;;1.45;0.70;;;;;;;18.48;50.00;99543.34;5003935;28;20341;-92
2022/03/04 12:55:08;;;;;;;1.33;0.50;;;;;;;18.47;50.12;99533.72;5001377;28;20014;-91
2022/03/04 12:57:41;;;;;;;1.10;0.50;;;;;;;18.47;50.14;99533.72;4958147;28;20095;-92
2022/03/04 13:00:13;;;;;;;1.92;0.60;;;;;;;18.47;49.94;99533.72;4987758;28;20027;-89
2022/03/04 13:03:16;;;;;;;2.20;0.60;;;;;;;18.48;49.98;99531.91;5012538;28;20089;-92
2022/03/04 13:05:50;;;;;;;1.80;0.63;;;;;;;18.49;49.85;99526.56;5018343;28;20010;-94
2022/03/04 13:08:16;;;;;;;1.58;0.50;;;;;;;18.48;50.10;99524.84;4992376;28;20070;-92
2022/03/04 13:10:42;;;;;;;0.77;0.40;;;;;;;18.46;50.29;99521.41;4994282;28;20022;-92
2022/03/04 13:13:09;;;;;;;1.55;0.60;;;;;;;18.48;50.03;99527.50;5010833;28;20260;-92
2022/03/04 13:15:51;;;;;;;1.13;0.50;;;;;;;18.46;50.24;99523.22;4993720;28;20050;-94
2022/03/04 13:18:21;;;;;;;1.52;0.57;;;;;;;18.47;49.99;99531.06;5000030;28;20007;-93
2022/03/04 13:21:04;;;;;;;1.40;0.60;;;;;;;18.47;49.92;99522.28;4993546;28;20416;-90
2022/03/04 13:23:50;;;;;;;1.17;0.68;;;;;;;18.48;50.27;99524.84;5013655;28;20018;-90